createdAt,value
2022-11-28T00:01:37.791Z,100530.97
2022-11-28T00:04:09.695Z,100518.94
2022-11-28T00:06:39.107Z,100510.66
2022-11-28T00:09:09.255Z,100493.50
2022-11-28T00:11:37.226Z,100524.94
2022-11-28T00:14:05.495Z,100525.72
2022-11-28T00:16:34.818Z,100529.91
2022-11-28T00:19:03.612Z,100527.53
2022-11-28T00:21:32.118Z,100530.09
2022-11-28T00:24:00.793Z,100524.28
2022-11-28T00:26:31.290Z,100517.03
2022-11-28T00:29:00.187Z,100523.44
2022-11-28T00:31:33.132Z,100519.91
2022-11-28T00:34:03.002Z,100507.50
2022-11-28T00:36:31.656Z,100504.53
2022-11-28T00:38:59.489Z,100509.22
2022-11-28T00:41:30.193Z,100456.31
2022-11-28T00:43:58.845Z,100500.06
2022-11-28T00:46:27.072Z,100507.16
2022-11-28T00:48:54.937Z,100508.34
2022-11-28T00:51:26.670Z,100502.72
2022-11-28T00:53:56.264Z,100495.50
2022-11-28T00:56:26.268Z,100500.94
2022-11-28T00:58:54.522Z,100499.56
2022-11-28T01:01:24.484Z,100493.75
2022-11-28T01:03:54.158Z,100487.16
2022-11-28T01:06:24.927Z,100491.28
2022-11-28T01:08:53.187Z,100489.84
2022-11-28T01:11:21.785Z,100464.41
2022-11-28T01:13:49.814Z,100474.88
2022-11-28T01:16:20.540Z,100469.81
2022-11-28T01:18:48.449Z,100470.66
2022-11-28T01:21:16.698Z,100470.66
2022-11-28T01:23:46.068Z,100462.13
2022-11-28T01:26:18.774Z,100458.50
2022-11-28T01:28:47.106Z,100446.28
2022-11-28T01:31:17.185Z,100463.06
2022-11-28T01:33:45.722Z,100464.03
2022-11-28T01:36:15.176Z,100463.09
2022-11-28T01:38:45.037Z,100465.00
2022-11-28T01:41:13.402Z,100461.56
2022-11-28T01:44:07.708Z,100456.00
2022-11-28T01:46:37.075Z,100445.69
2022-11-28T01:49:16.605Z,100450.09
2022-11-28T01:51:48.865Z,100441.81
2022-11-28T01:54:21.562Z,100441.44
2022-11-28T01:56:54.033Z,100442.50
2022-11-28T01:59:27.515Z,100438.88
2022-11-28T02:01:55.654Z,100427.28
2022-11-28T02:04:26.927Z,100426.47
2022-11-28T02:06:55.459Z,100415.44
2022-11-28T02:09:24.664Z,100416.31
2022-11-28T02:12:12.399Z,100412.41
2022-11-28T02:15:07.740Z,100406.59
2022-11-28T02:17:47.508Z,100408.97
2022-11-28T02:20:36.954Z,100420.41
2022-11-28T02:23:14.441Z,100412.22
2022-11-28T02:26:06.566Z,100407.25
2022-11-28T02:28:59.057Z,100394.09
2022-11-28T02:31:43.925Z,100399.06
2022-11-28T02:34:20.674Z,100395.63
2022-11-28T02:36:54.021Z,100363.13
2022-11-28T02:39:31.481Z,100373.69
2022-11-28T02:42:08.216Z,100378.66
2022-11-28T02:44:44.471Z,100365.50
2022-11-28T02:47:19.882Z,100363.03
2022-11-28T02:49:55.888Z,100368.75
2022-11-28T02:52:28.936Z,100334.84
2022-11-28T02:54:56.883Z,100365.50
2022-11-28T02:57:30.187Z,100363.69
2022-11-28T02:59:58.075Z,100358.66
2022-11-28T03:02:29.046Z,100364.38
2022-11-28T03:05:08.718Z,100353.50
2022-11-28T03:08:01.804Z,100344.00
2022-11-28T03:10:36.750Z,100347.22
2022-11-28T03:13:11.198Z,100346.47
2022-11-28T03:15:46.408Z,100342.47
2022-11-28T03:18:21.386Z,100340.94
2022-11-28T03:20:56.309Z,100330.47
2022-11-28T03:23:31.523Z,100339.16
2022-11-28T03:26:02.779Z,100339.25
2022-11-28T03:28:38.169Z,100333.13
2022-11-28T03:31:14.273Z,100310.16
2022-11-28T03:33:46.548Z,100316.03
2022-11-28T03:36:20.497Z,100312.31
2022-11-28T03:38:51.675Z,100312.50
2022-11-28T03:41:23.174Z,100318.41
2022-11-28T03:43:54.679Z,100315.94
2022-11-28T03:46:27.246Z,100316.88
2022-11-28T03:48:59.614Z,100306.97
2022-11-28T03:51:33.714Z,100313.69
2022-11-28T03:54:09.351Z,100314.75
2022-11-28T03:56:41.975Z,100322.94
2022-11-28T03:59:14.441Z,100317.28
2022-11-28T04:01:53.883Z,100307.97
2022-11-28T04:04:29.270Z,100312.44
2022-11-28T04:07:01.536Z,100307.50
2022-11-28T04:09:42.335Z,100309.31
2022-11-28T04:12:20.642Z,100306.44
2022-11-28T04:14:53.949Z,100311.59
2022-11-28T04:17:31.900Z,100292.53
2022-11-28T04:20:07.036Z,100323.19
2022-11-28T04:22:43.645Z,100311.31
2022-11-28T04:25:15.134Z,100320.84
2022-11-28T04:27:47.568Z,100319.59
2022-11-28T04:30:15.944Z,100300.06
2022-11-28T04:32:49.130Z,100319.94
2022-11-28T04:35:22.832Z,100327.25
2022-11-28T04:37:53.817Z,100319.19
2022-11-28T04:40:24.853Z,100316.91
2022-11-28T04:42:56.923Z,100328.72
2022-11-28T04:45:30.019Z,100317.09
2022-11-28T04:47:58.428Z,100324.13
2022-11-28T04:50:32.137Z,100297.75
2022-11-28T04:53:11.567Z,100315.75
2022-11-28T04:55:44.810Z,100320.88
2022-11-28T04:58:17.252Z,100316.06
2022-11-28T05:00:46.652Z,100312.81
2022-11-28T05:03:14.732Z,100309.34
2022-11-28T05:05:45.652Z,100288.59
2022-11-28T05:08:15.010Z,100315.75
2022-11-28T05:10:43.139Z,100307.34
2022-11-28T05:13:11.157Z,100312.41
2022-11-28T05:15:39.205Z,100307.34
2022-11-28T05:18:07.608Z,100314.63
2022-11-28T05:20:35.906Z,100318.91
2022-11-28T05:23:03.695Z,100319.06
2022-11-28T05:25:32.999Z,100317.44
2022-11-28T05:28:00.841Z,100295.34
2022-11-28T05:30:28.650Z,100324.31
2022-11-28T05:32:56.478Z,100319.50
2022-11-28T05:35:24.374Z,100322.94
2022-11-28T05:37:52.162Z,100329.59
2022-11-28T05:40:20.221Z,100329.41
2022-11-28T05:42:49.382Z,100331.91
2022-11-28T05:45:17.268Z,100337.47
2022-11-28T05:47:45.164Z,100336.53
2022-11-28T05:50:13.160Z,100330.63
2022-11-28T05:52:41.010Z,100324.72
2022-11-28T05:55:09.736Z,100322.06
2022-11-28T05:57:37.572Z,100320.34
2022-11-28T06:00:08.308Z,100318.72
2022-11-28T06:02:42.086Z,100318.72
2022-11-28T06:05:34.673Z,100312.31
2022-11-28T06:07:58.131Z,100309.06
2022-11-28T06:10:26.069Z,100304.09
2022-11-28T06:12:53.932Z,100315.06
2022-11-28T06:15:23.146Z,100315.91
2022-11-28T06:17:51.019Z,100312.69
2022-11-28T06:20:19.054Z,100311.91
2022-11-28T06:22:47.593Z,100314.38
2022-11-28T06:25:15.470Z,100310.25
2022-11-28T06:27:43.885Z,100306.16
2022-11-28T06:30:12.039Z,100305.38
2022-11-28T06:32:41.184Z,100281.19
2022-11-28T06:35:09.467Z,100300.00
2022-11-28T06:37:37.281Z,100296.78
2022-11-28T06:40:06.151Z,100291.97
2022-11-28T06:42:35.778Z,100299.44
2022-11-28T06:45:04.584Z,100300.00
2022-11-28T06:47:32.784Z,100292.31
2022-11-28T06:50:02.126Z,100296.94
2022-11-28T06:52:30.138Z,100290.44
2022-11-28T06:54:58.010Z,100283.09
2022-11-28T06:57:25.805Z,100285.81
2022-11-28T06:59:53.670Z,100285.66
2022-11-28T07:02:22.853Z,100300.09
2022-11-28T07:04:50.803Z,100294.38
2022-11-28T07:07:20.064Z,100289.41
2022-11-28T07:09:48.053Z,100287.88
2022-11-28T07:12:15.860Z,100290.44
2022-11-28T07:14:43.656Z,100290.63
2022-11-28T07:17:11.560Z,100284.03
2022-11-28T07:19:39.631Z,100280.03
2022-11-28T07:22:07.490Z,100258.78
2022-11-28T07:24:36.688Z,100277.09
2022-11-28T07:27:04.623Z,100281.28
2022-11-28T07:29:36.469Z,100282.22
2022-11-28T07:32:05.803Z,100268.00
2022-11-28T07:34:33.685Z,100274.00
2022-11-28T07:37:01.529Z,100277.44
2022-11-28T07:39:29.406Z,100276.56
2022-11-28T07:41:58.559Z,100272.47
2022-11-28T07:44:26.347Z,100266.31
2022-11-28T07:46:54.317Z,100274.00
2022-11-28T07:49:22.242Z,100269.13
2022-11-28T07:51:50.343Z,100278.28
2022-11-28T07:54:18.216Z,100276.75
2022-11-28T07:59:35.654Z,100275.22
2022-11-28T08:02:03.734Z,100283.78
2022-11-28T08:04:31.836Z,100273.06
2022-11-28T08:06:59.745Z,100267.31
2022-11-28T08:09:27.681Z,100273.00
2022-11-28T08:11:55.639Z,100273.06
2022-11-28T08:14:23.500Z,100271.41
2022-11-28T08:16:52.802Z,100275.69
2022-11-28T08:19:24.632Z,100277.56
2022-11-28T08:21:52.880Z,100271.06
2022-11-28T08:24:20.675Z,100269.53
2022-11-28T08:26:48.469Z,100261.13
2022-11-28T08:29:16.337Z,100272.69
2022-11-28T08:31:44.192Z,100266.25
2022-11-28T08:34:13.334Z,100272.78
2022-11-28T08:36:43.348Z,100270.28
2022-11-28T08:39:27.828Z,100274.66
2022-11-28T08:41:58.914Z,100276.38
2022-11-28T08:44:30.268Z,100284.75
2022-11-28T08:46:58.552Z,100283.06
2022-11-28T08:49:27.688Z,100274.66
2022-11-28T08:51:55.566Z,100277.22
2022-11-28T08:54:23.446Z,100280.69
2022-11-28T08:56:51.335Z,100275.28
2022-11-28T08:59:19.174Z,100279.66
2022-11-28T09:01:47.080Z,100275.63
2022-11-28T09:04:15.079Z,100276.50
2022-11-28T09:06:44.328Z,100276.25
2022-11-28T09:09:12.517Z,100268.44
2022-11-28T09:11:40.593Z,100260.66
2022-11-28T09:14:08.774Z,100264.22
2022-11-28T09:16:36.635Z,100259.66
2022-11-28T09:19:05.123Z,100260.75
2022-11-28T09:21:33.201Z,100243.88
2022-11-28T09:24:02.407Z,100250.63
2022-11-28T09:26:30.947Z,100246.78
2022-11-28T09:28:58.790Z,100252.19
2022-11-28T09:31:26.645Z,100246.16
2022-11-28T09:33:54.975Z,100241.63
2022-11-28T09:36:24.780Z,100249.56
2022-11-28T09:38:52.811Z,100244.88
2022-11-28T09:41:34.719Z,100238.03
2022-11-28T09:44:08.000Z,100229.22
2022-11-28T09:46:38.304Z,100232.25
2022-11-28T09:49:20.852Z,100227.53
2022-11-28T09:51:53.977Z,100221.38
2022-11-28T09:54:28.955Z,100227.13
2022-11-28T09:56:59.964Z,100219.34
2022-11-28T09:59:30.080Z,100216.94
2022-11-28T10:02:05.770Z,100211.88
2022-11-28T10:04:42.395Z,100209.75
2022-11-28T10:07:20.605Z,100206.16
2022-11-28T10:09:58.147Z,100205.84
2022-11-28T10:12:44.503Z,100207.56
2022-11-28T10:15:25.674Z,100205.25
2022-11-28T10:18:08.150Z,100211.69
2022-11-28T10:20:40.527Z,100178.38
2022-11-28T10:23:15.863Z,100191.03
2022-11-28T10:25:49.474Z,100209.53
2022-11-28T10:28:23.192Z,100206.75
2022-11-28T10:30:58.223Z,100201.56
2022-11-28T10:33:30.998Z,100204.81
2022-11-28T10:36:01.490Z,100199.59
2022-11-28T10:38:34.110Z,100199.41
2022-11-28T10:41:08.787Z,100185.56
2022-11-28T10:43:45.070Z,100183.84
2022-11-28T10:46:31.747Z,100184.63
2022-11-28T10:49:09.076Z,100182.00
2022-11-28T10:51:49.950Z,100182.56
2022-11-28T10:54:26.582Z,100178.06
2022-11-28T10:57:02.165Z,100178.38
2022-11-28T10:59:42.637Z,100188.19
2022-11-28T11:02:21.621Z,100180.66
2022-11-28T11:04:49.546Z,100180.34
2022-11-28T11:07:27.987Z,100172.56
2022-11-28T11:09:59.462Z,100174.38
2022-11-28T11:12:31.530Z,100165.28
2022-11-28T11:15:15.321Z,100160.88
2022-11-28T11:17:43.110Z,100162.44
2022-11-28T11:20:38.139Z,100168.78
2022-11-28T11:23:16.562Z,100159.00
2022-11-28T11:25:55.562Z,100160.72
2022-11-28T11:28:41.612Z,100161.56
2022-11-28T11:31:20.695Z,100157.38
2022-11-28T11:33:51.459Z,100148.91
2022-11-28T11:36:28.776Z,100160.56
2022-11-28T11:39:08.187Z,100154.03
2022-11-28T11:41:36.042Z,100150.06
2022-11-28T11:44:29.596Z,100144.38
2022-11-28T11:47:01.815Z,100142.66
2022-11-28T11:49:32.116Z,100140.56
2022-11-28T11:52:02.106Z,100144.53
2022-11-28T11:54:30.495Z,100141.28
2022-11-28T11:57:30.582Z,100139.72
2022-11-28T11:59:51.699Z,100112.25
2022-11-28T12:02:26.522Z,100135.59
2022-11-28T12:05:00.487Z,100131.13
2022-11-28T12:07:34.339Z,100120.88
2022-11-28T12:10:04.752Z,100115.44
2022-11-28T12:12:37.320Z,100120.91
2022-11-28T12:15:13.020Z,100111.38
2022-11-28T12:17:58.577Z,100110.81
2022-11-28T12:20:42.906Z,100102.72
2022-11-28T12:23:30.628Z,100107.13
2022-11-28T12:26:07.213Z,100109.03
2022-11-28T12:28:48.728Z,100080.16
2022-11-28T12:31:27.253Z,100102.22
2022-11-28T12:34:07.571Z,100106.28
2022-11-28T12:36:42.497Z,100106.84
2022-11-28T12:39:18.819Z,100098.88
2022-11-28T12:42:20.112Z,100103.06
2022-11-28T12:44:59.869Z,100096.94
2022-11-28T12:47:39.432Z,100100.28
2022-11-28T12:50:21.618Z,100104.34
2022-11-28T12:53:00.891Z,100103.19
2022-11-28T12:55:36.410Z,100096.44
2022-11-28T12:58:12.737Z,100093.03
2022-11-28T13:00:51.102Z,100087.00
2022-11-28T13:03:34.255Z,100082.78
2022-11-28T13:06:16.131Z,100084.50
2022-11-28T13:09:15.305Z,100080.94
2022-11-28T13:11:58.071Z,100084.19
2022-11-28T13:14:36.859Z,100081.72
2022-11-28T13:17:17.341Z,100087.53
2022-11-28T13:19:51.205Z,100074.25
2022-11-28T13:22:25.189Z,100072.53
2022-11-28T13:25:01.589Z,100079.16
2022-11-28T13:27:38.528Z,100049.66
2022-11-28T13:30:21.100Z,100078.16
2022-11-28T13:32:55.217Z,100075.53
2022-11-28T13:35:24.369Z,100075.53
2022-11-28T13:40:52.904Z,100072.13
2022-11-28T13:43:28.617Z,100080.34
2022-11-28T13:45:57.191Z,100069.72
2022-11-28T13:49:13.757Z,100062.97
2022-11-28T13:51:42.992Z,100069.50
2022-11-28T13:54:37.105Z,100073.69
2022-11-28T13:57:15.360Z,100072.66
2022-11-28T13:59:49.855Z,100051.59
2022-11-28T14:02:23.988Z,100084.59
2022-11-28T14:04:51.946Z,100082.72
2022-11-28T14:07:30.729Z,100090.81
2022-11-28T14:10:26.769Z,100088.94
2022-11-28T14:13:22.956Z,100085.44
2022-11-28T14:16:07.778Z,100080.28
2022-11-28T14:18:58.437Z,100086.81
2022-11-28T14:21:40.067Z,100082.06
2022-11-28T14:24:17.282Z,100079.50
2022-11-28T14:26:45.598Z,100083.63
2022-11-28T14:29:24.131Z,100082.63
2022-11-28T14:32:21.652Z,100072.53
2022-11-28T14:34:45.521Z,100064.47
2022-11-28T14:37:57.664Z,100072.13
2022-11-28T14:41:06.123Z,100077.72
2022-11-28T14:43:36.617Z,100074.84
2022-11-28T14:46:33.888Z,100076.41
2022-11-28T14:49:17.672Z,100075.38
2022-11-28T14:54:57.907Z,100075.94
2022-11-28T14:57:28.899Z,100075.09
2022-11-28T14:59:59.678Z,100086.66
2022-11-28T15:02:44.924Z,100083.31
2022-11-28T15:05:34.588Z,100058.81
2022-11-28T15:08:47.995Z,100080.75
2022-11-28T15:11:24.052Z,100088.97
2022-11-28T15:14:09.835Z,100088.13
2022-11-28T15:16:48.250Z,100087.41
2022-11-28T15:19:26.500Z,100089.06
2022-11-28T15:21:56.198Z,100099.56
2022-11-28T15:24:30.436Z,100092.56
2022-11-28T15:27:17.286Z,100095.81
2022-11-28T15:29:54.677Z,100094.25
2022-11-28T15:32:23.642Z,100085.09
2022-11-28T15:35:00.911Z,100084.72
2022-11-28T15:37:32.056Z,100093.25
2022-11-28T15:40:03.412Z,100098.22
2022-11-28T15:42:33.903Z,100094.50
2022-11-28T15:45:09.521Z,100090.28
2022-11-28T15:47:38.916Z,100094.50
2022-11-28T15:50:18.198Z,100103.56
2022-11-28T15:52:54.686Z,100105.97
2022-11-28T15:55:23.054Z,100103.47
2022-11-28T15:57:51.050Z,100112.28
2022-11-28T16:00:21.867Z,100122.47
2022-11-28T16:02:50.258Z,100115.88
2022-11-28T16:05:22.236Z,100114.16
2022-11-28T16:07:51.959Z,100108.00
2022-11-28T16:10:25.183Z,100123.31
2022-11-28T16:13:01.758Z,100109.03
2022-11-28T16:15:30.756Z,100112.63
2022-11-28T16:17:58.797Z,100119.31
2022-11-28T16:20:30.663Z,100119.13
2022-11-28T16:23:02.541Z,100097.09
2022-11-28T16:25:31.136Z,100111.53
2022-11-28T16:27:59.933Z,100116.31
2022-11-28T16:30:33.499Z,100115.53
2022-11-28T16:33:01.983Z,100111.44
2022-11-28T16:35:36.072Z,100101.34
2022-11-28T16:38:15.231Z,100115.53
2022-11-28T16:40:43.804Z,100117.94
2022-11-28T16:43:21.294Z,100123.44
2022-11-28T16:45:59.957Z,100120.03
2022-11-28T16:48:30.100Z,100126.88
2022-11-28T16:51:36.684Z,100131.84
2022-11-28T16:54:32.389Z,100127.78
2022-11-28T16:57:11.869Z,100130.97
2022-11-28T16:59:39.984Z,100131.84
2022-11-28T17:02:15.361Z,100138.41
2022-11-28T17:04:43.259Z,100133.50
2022-11-28T17:07:14.601Z,100131.88
2022-11-28T17:09:42.928Z,100124.31
2022-11-28T17:12:17.844Z,100129.28
2022-11-28T17:14:45.720Z,100125.75
2022-11-28T17:17:14.691Z,100134.06
2022-11-28T17:19:42.911Z,100133.03
2022-11-28T17:22:15.440Z,100138.16
2022-11-28T17:24:43.682Z,100140.06
2022-11-28T17:27:13.003Z,100138.41
2022-11-28T17:29:41.080Z,100138.25
2022-11-28T17:32:13.437Z,100139.63
2022-11-28T17:34:42.545Z,100130.63
2022-11-28T17:37:11.032Z,100131.06
2022-11-28T17:40:00.273Z,100135.16
2022-11-28T17:42:28.199Z,100135.72
2022-11-28T17:44:56.171Z,100136.22
2022-11-28T17:47:26.804Z,100127.50
2022-11-28T17:49:55.493Z,100130.50
2022-11-28T17:52:30.020Z,100127.25
2022-11-28T17:55:07.086Z,100123.81
2022-11-28T17:57:36.091Z,100133.75
2022-11-28T18:00:06.562Z,100123.91
2022-11-28T18:02:41.841Z,100125.03
2022-11-28T18:05:10.726Z,100130.22
2022-11-28T18:07:40.243Z,100132.88
2022-11-28T18:10:13.486Z,100129.63
2022-11-28T18:12:41.595Z,100128.00
2022-11-28T18:15:11.158Z,100127.91
2022-11-28T18:17:39.388Z,100129.63
2022-11-28T18:20:09.410Z,100124.72
2022-11-28T18:22:37.299Z,100131.50
2022-11-28T18:25:07.927Z,100129.09
2022-11-28T18:27:37.212Z,100122.69
2022-11-28T18:30:06.018Z,100135.22
2022-11-28T18:32:33.982Z,100133.50
2022-11-28T18:35:01.914Z,100140.19
2022-11-28T18:37:29.915Z,100136.00
2022-11-28T18:39:58.321Z,100138.34
2022-11-28T18:42:26.501Z,100150.13
2022-11-28T18:44:55.982Z,100141.75
2022-11-28T18:47:24.841Z,100134.91
2022-11-28T18:49:53.445Z,100154.22
2022-11-28T18:52:21.424Z,100148.56
2022-11-28T18:54:49.254Z,100151.22
2022-11-28T18:57:18.319Z,100151.13
2022-11-28T18:59:52.885Z,100150.53
2022-11-28T19:02:24.131Z,100156.44
2022-11-28T19:04:52.745Z,100145.31
2022-11-28T19:07:20.920Z,100155.59
2022-11-28T19:09:48.812Z,100133.84
2022-11-28T19:12:16.811Z,100130.03
2022-11-28T19:14:44.766Z,100144.63
2022-11-28T19:17:13.036Z,100143.78
2022-11-28T19:19:44.275Z,100145.31
2022-11-28T19:22:12.502Z,100144.47
2022-11-28T19:24:40.369Z,100146.84
2022-11-28T19:27:13.876Z,100150.44
2022-11-28T19:29:43.115Z,100142.06
2022-11-28T19:32:11.395Z,100148.81
2022-11-28T19:34:39.526Z,100149.75
2022-11-28T19:37:08.802Z,100149.00
2022-11-28T19:39:36.928Z,100152.50
2022-11-28T19:42:04.983Z,100144.13
2022-11-28T19:44:33.099Z,100143.44
2022-11-28T19:47:01.908Z,100118.63
2022-11-28T19:49:29.944Z,100131.72
2022-11-28T19:51:58.431Z,100136.59
2022-11-28T19:54:28.226Z,100135.56
2022-11-28T19:56:57.055Z,100139.75
2022-11-28T19:59:25.110Z,100127.50
2022-11-28T20:01:53.821Z,100125.81
2022-11-28T20:04:23.056Z,100129.22
2022-11-28T20:06:50.874Z,100130.09
2022-11-28T20:09:18.938Z,100132.81
2022-11-28T20:11:49.570Z,100137.78
2022-11-28T20:14:19.192Z,100129.53
2022-11-28T20:16:47.892Z,100138.56
2022-11-28T20:19:17.807Z,100138.47
2022-11-28T20:21:46.402Z,100142.75
2022-11-28T20:24:16.103Z,100141.16
2022-11-28T20:26:46.289Z,100143.06
2022-11-28T20:29:17.558Z,100144.44
2022-11-28T20:31:48.214Z,100149.25
2022-11-28T20:34:18.433Z,100150.63
2022-11-28T20:36:52.163Z,100138.81
2022-11-28T20:39:20.075Z,100144.19
2022-11-28T20:41:48.015Z,100145.75
2022-11-28T20:44:17.688Z,100144.13
2022-11-28T20:46:46.379Z,100141.63
2022-11-28T20:49:15.675Z,100139.16
2022-11-28T20:51:43.713Z,100094.19
2022-11-28T20:54:13.419Z,100134.03
2022-11-28T20:57:13.007Z,100135.72
2022-11-28T20:59:32.578Z,100143.44
2022-11-28T21:02:00.442Z,100145.22
2022-11-28T21:04:28.356Z,100145.28
2022-11-28T21:06:56.237Z,100144.44
2022-11-28T21:09:24.041Z,100144.44
2022-11-28T21:11:59.578Z,100149.25
2022-11-28T21:14:28.669Z,100141.72
2022-11-28T21:16:58.941Z,100148.22
2022-11-28T21:19:27.207Z,100151.66
2022-11-28T21:21:55.151Z,100149.25
2022-11-28T21:24:23.066Z,100156.69
2022-11-28T21:26:53.830Z,100154.34
2022-11-28T21:29:25.424Z,100162.91
2022-11-28T21:31:53.920Z,100156.41
2022-11-28T21:34:23.283Z,100156.16
2022-11-28T21:36:51.294Z,100145.44
2022-11-28T21:39:21.911Z,100151.19
2022-11-28T21:41:50.843Z,100150.19
2022-11-28T21:44:18.849Z,100156.84
2022-11-28T21:46:47.827Z,100159.94
2022-11-28T21:49:15.942Z,100154.03
2022-11-28T21:51:45.416Z,100152.50
2022-11-28T21:54:13.909Z,100158.31
2022-11-28T21:56:41.937Z,100149.94
2022-11-28T21:59:09.986Z,100161.66
2022-11-28T22:01:38.906Z,100167.38
2022-11-28T22:04:07.218Z,100162.44
2022-11-28T22:06:35.318Z,100151.22
2022-11-28T22:09:09.495Z,100159.00
2022-11-28T22:11:39.322Z,100161.50
2022-11-28T22:14:07.314Z,100158.16
2022-11-28T22:16:35.209Z,100161.56
2022-11-28T22:19:04.160Z,100166.72
2022-11-28T22:24:22.742Z,100146.84
2022-11-28T22:26:51.076Z,100145.91
2022-11-28T22:29:19.377Z,100154.03
2022-11-28T22:31:47.758Z,100165.34
2022-11-28T22:34:15.686Z,100160.81
2022-11-28T22:36:44.128Z,100157.31
2022-11-28T22:39:12.350Z,100162.28
2022-11-28T22:41:41.703Z,100156.13
2022-11-28T22:44:11.303Z,100152.72
2022-11-28T22:46:39.564Z,100134.56
2022-11-28T22:49:11.160Z,100134.75
2022-11-28T22:51:40.317Z,100108.25
2022-11-28T22:54:09.120Z,100133.38
2022-11-28T22:56:37.398Z,100121.09
2022-11-28T22:59:10.541Z,100120.28
2022-11-28T23:01:38.755Z,100131.19
2022-11-28T23:04:06.931Z,100126.41
2022-11-28T23:06:36.428Z,100123.84
2022-11-28T23:09:08.473Z,100130.59
2022-11-28T23:11:38.752Z,100117.16
2022-11-28T23:14:08.486Z,100126.06
2022-11-28T23:16:38.908Z,100122.03
2022-11-28T23:19:10.597Z,100127.00
2022-11-28T23:21:40.752Z,100123.59
2022-11-28T23:24:13.040Z,100127.88
2022-11-28T23:26:40.954Z,100104.81
2022-11-28T23:29:10.641Z,100123.75
2022-11-28T23:31:40.644Z,100124.78
2022-11-28T23:34:09.656Z,100123.06
2022-11-28T23:36:42.712Z,100118.97
2022-11-28T23:39:14.269Z,100131.53
2022-11-28T23:41:42.609Z,100122.22
2022-11-28T23:44:13.100Z,100115.38
2022-11-28T23:46:42.113Z,100131.28
2022-11-28T23:49:10.724Z,100133.59
2022-11-28T23:51:39.993Z,100128.72
2022-11-28T23:54:08.429Z,100130.44
2022-11-28T23:56:37.879Z,100122.81
2022-11-28T23:59:08.559Z,100125.38
